createdAt,value
2023-11-13T00:02:22.102Z,100139.13
2023-11-13T00:05:24.090Z,100144.34
2023-11-13T00:08:26.292Z,100139.13
2023-11-13T00:11:28.226Z,100160.00
2023-11-13T00:14:30.519Z,100159.13
2023-11-13T00:17:32.596Z,100152.22
2023-11-13T00:20:34.480Z,100170.47
2023-11-13T00:23:39.049Z,100173.09
2023-11-13T00:26:41.052Z,100167.06
2023-11-13T00:29:42.892Z,100176.63
2023-11-13T00:32:44.790Z,100175.75
2023-11-13T00:35:46.825Z,100188.78
2023-11-13T00:38:48.776Z,100183.56
2023-11-13T00:41:50.808Z,100189.69
2023-11-13T00:44:52.730Z,100197.50
2023-11-13T00:47:54.869Z,100187.97
2023-11-13T00:50:57.336Z,100197.56
2023-11-13T00:53:59.209Z,100184.56
2023-11-13T00:57:01.262Z,100195.00
2023-11-13T01:00:05.413Z,100188.06
2023-11-13T01:03:07.621Z,100198.50
2023-11-13T01:06:15.738Z,100198.50
2023-11-13T01:09:17.622Z,100201.13
2023-11-13T01:12:21.845Z,100201.13
2023-11-13T01:15:24.199Z,100191.59
2023-11-13T01:18:26.151Z,100187.28
2023-11-13T01:21:28.489Z,100177.72
2023-11-13T01:24:30.411Z,100179.47
2023-11-13T01:27:32.375Z,100181.19
2023-11-13T01:30:34.366Z,100177.72
2023-11-13T01:33:36.296Z,100173.41
2023-11-13T01:36:38.773Z,100183.84
2023-11-13T01:39:40.776Z,100161.25
2023-11-13T01:42:42.696Z,100161.25
2023-11-13T01:45:45.459Z,100170.81
2023-11-13T01:48:47.474Z,100159.53
2023-11-13T01:51:50.693Z,100171.69
2023-11-13T01:54:52.703Z,100179.50
2023-11-13T01:57:54.745Z,100140.47
2023-11-13T02:00:57.018Z,100176.91
2023-11-13T02:03:59.101Z,100170.88
2023-11-13T02:07:01.631Z,100173.47
2023-11-13T02:10:06.150Z,100183.91
2023-11-13T02:13:11.919Z,100196.94
2023-11-13T02:16:14.155Z,100207.38
2023-11-13T02:19:19.294Z,100209.09
2023-11-13T02:22:21.529Z,100223.00
2023-11-13T02:25:25.662Z,100227.34
2023-11-13T02:28:28.294Z,100225.59
2023-11-13T02:31:31.247Z,100230.84
2023-11-13T02:34:33.343Z,100242.97
2023-11-13T02:37:35.258Z,100245.59
2023-11-13T02:40:37.099Z,100241.22
2023-11-13T02:43:39.011Z,100250.78
2023-11-13T02:46:41.323Z,100245.59
2023-11-13T02:49:44.119Z,100252.53
2023-11-13T02:52:46.398Z,100262.94
2023-11-13T02:55:50.519Z,100237.75
2023-11-13T02:58:52.630Z,100255.13
2023-11-13T03:01:54.753Z,100263.78
2023-11-13T03:04:56.854Z,100247.28
2023-11-13T03:07:59.076Z,100276.81
2023-11-13T03:11:01.191Z,100271.59
2023-11-13T03:14:03.190Z,100263.81
2023-11-13T03:17:05.599Z,100279.41
2023-11-13T03:20:08.323Z,100276.81
2023-11-13T03:23:10.788Z,100282.00
2023-11-13T03:26:12.828Z,100268.09
2023-11-13T03:29:14.825Z,100273.34
2023-11-13T03:32:19.216Z,100275.94
2023-11-13T03:35:21.383Z,100271.59
2023-11-13T03:38:23.390Z,100296.78
2023-11-13T03:41:25.931Z,100284.63
2023-11-13T03:44:28.907Z,100283.72
2023-11-13T03:47:30.871Z,100275.03
2023-11-13T03:50:32.900Z,100284.59
2023-11-13T03:53:35.882Z,100293.28
2023-11-13T03:56:37.929Z,100282.00
2023-11-13T03:59:39.892Z,100277.66
2023-11-13T04:02:41.907Z,100286.34
2023-11-13T04:05:43.897Z,100270.72
2023-11-13T04:08:46.453Z,100276.78
2023-11-13T04:11:48.378Z,100288.97
2023-11-13T04:14:50.413Z,100292.44
2023-11-13T04:17:53.045Z,100296.78
2023-11-13T04:20:55.982Z,100300.28
2023-11-13T04:23:57.981Z,100289.84
2023-11-13T04:26:59.995Z,100297.66
2023-11-13T04:30:02.201Z,100283.75
2023-11-13T04:33:04.263Z,100288.97
2023-11-13T04:36:07.014Z,100274.25
2023-11-13T04:39:10.856Z,100282.91
2023-11-13T04:42:12.967Z,100257.72
2023-11-13T04:45:14.954Z,100268.16
2023-11-13T04:48:16.882Z,100269.00
2023-11-13T04:51:18.748Z,100246.44
2023-11-13T04:54:20.759Z,100271.63
2023-11-13T04:57:22.769Z,100249.91
2023-11-13T05:00:24.631Z,100238.63
2023-11-13T05:03:26.688Z,100224.75
2023-11-13T05:06:28.683Z,100220.38
2023-11-13T05:09:30.585Z,100231.69
2023-11-13T05:12:32.529Z,100277.66
2023-11-13T05:15:34.445Z,100308.09
2023-11-13T05:18:36.745Z,100273.34
2023-11-13T05:21:39.524Z,100283.78
2023-11-13T05:24:42.318Z,100284.66
2023-11-13T05:27:44.434Z,100294.22
2023-11-13T05:30:46.336Z,100298.53
2023-11-13T05:33:49.282Z,100287.28
2023-11-13T05:36:51.358Z,100291.63
2023-11-13T05:39:55.064Z,100301.16
2023-11-13T05:42:56.995Z,100318.53
2023-11-13T05:45:59.132Z,100317.66
2023-11-13T05:49:01.303Z,100318.50
2023-11-13T05:52:03.374Z,100309.81
2023-11-13T05:55:07.005Z,100304.59
2023-11-13T05:58:09.024Z,100298.53
2023-11-13T06:01:11.097Z,100262.91
2023-11-13T06:04:13.316Z,100308.94
2023-11-13T06:07:15.587Z,100306.31
2023-11-13T06:10:17.641Z,100302.84
2023-11-13T06:13:19.665Z,100315.00
2023-11-13T06:16:22.222Z,100333.22
2023-11-13T06:19:24.866Z,100321.94
2023-11-13T06:22:28.265Z,100321.94
2023-11-13T06:25:30.911Z,100332.38
2023-11-13T06:28:32.856Z,100327.16
2023-11-13T06:31:35.794Z,100354.06
2023-11-13T06:34:37.794Z,100329.78
2023-11-13T06:37:42.533Z,100339.34
2023-11-13T06:40:44.422Z,100334.13
2023-11-13T06:43:46.826Z,100347.16
2023-11-13T06:46:48.977Z,100346.31
2023-11-13T06:49:51.034Z,100355.00
2023-11-13T06:52:54.567Z,100363.69
2023-11-13T06:55:56.535Z,100305.44
2023-11-13T06:58:58.435Z,100359.34
2023-11-13T07:02:01.972Z,100363.72
2023-11-13T07:05:06.296Z,100369.81
2023-11-13T07:08:11.131Z,100367.19
2023-11-13T07:11:16.182Z,100386.31
2023-11-13T07:14:18.269Z,100381.97
2023-11-13T07:17:20.187Z,100368.06
2023-11-13T07:20:22.885Z,100375.91
2023-11-13T07:23:24.731Z,100380.22
2023-11-13T07:26:27.641Z,100382.81
2023-11-13T07:29:31.384Z,100400.19
2023-11-13T07:32:33.453Z,100401.09
2023-11-13T07:35:39.382Z,100388.06
2023-11-13T07:38:44.056Z,100404.56
2023-11-13T07:41:46.070Z,100410.63
2023-11-13T07:44:50.940Z,100382.84
2023-11-13T07:47:57.731Z,100401.06
2023-11-13T07:50:59.759Z,100398.50
2023-11-13T07:54:02.052Z,100395.00
2023-11-13T07:57:05.360Z,100403.69
2023-11-13T08:00:11.543Z,100411.50
2023-11-13T08:03:17.846Z,100415.88
2023-11-13T08:06:19.836Z,100400.22
2023-11-13T08:09:21.989Z,100404.56
2023-11-13T08:12:24.599Z,100413.25
2023-11-13T08:15:26.964Z,100385.47
2023-11-13T08:18:29.448Z,100384.56
2023-11-13T08:21:32.653Z,100373.28
2023-11-13T08:24:34.557Z,100349.81
2023-11-13T08:27:39.806Z,100374.09
2023-11-13T08:30:47.896Z,100381.03
2023-11-13T08:33:49.831Z,100382.78
2023-11-13T08:36:52.171Z,100371.44
2023-11-13T08:39:54.402Z,100381.00
2023-11-13T08:43:00.228Z,100380.13
2023-11-13T08:46:05.418Z,100367.06
2023-11-13T08:49:09.235Z,100360.13
2023-11-13T08:52:11.731Z,100379.25
2023-11-13T08:55:18.480Z,100394.00
2023-11-13T08:58:20.711Z,100380.97
2023-11-13T09:01:27.321Z,100394.88
2023-11-13T09:04:29.428Z,100394.84
2023-11-13T09:07:32.715Z,100367.03
2023-11-13T09:10:34.732Z,100372.22
2023-11-13T09:13:37.581Z,100375.72
2023-11-13T09:16:42.306Z,100375.72
2023-11-13T09:19:44.369Z,100372.19
2023-11-13T09:22:50.223Z,100399.19
2023-11-13T09:25:52.209Z,100372.19
2023-11-13T09:28:56.284Z,100369.59
2023-11-13T09:31:58.912Z,100346.94
2023-11-13T09:35:01.108Z,100367.81
2023-11-13T09:38:03.671Z,100367.81
2023-11-13T09:41:10.207Z,100362.59
2023-11-13T09:44:13.183Z,100366.91
2023-11-13T09:47:22.807Z,100365.13
2023-11-13T09:50:24.960Z,100359.06
2023-11-13T09:53:30.926Z,100318.22
2023-11-13T09:56:34.037Z,100343.38
2023-11-13T09:59:39.087Z,100312.88
2023-11-13T10:02:43.302Z,100335.47
2023-11-13T10:05:45.928Z,100333.69
2023-11-13T10:08:48.630Z,100311.03
2023-11-13T10:11:50.916Z,100317.06
2023-11-13T10:15:09.221Z,100295.31
2023-11-13T10:18:14.027Z,100308.22
2023-11-13T10:21:34.781Z,100315.91
2023-11-13T10:24:43.986Z,100288.03
2023-11-13T10:28:01.152Z,100305.16
2023-11-13T10:31:06.219Z,100283.13
2023-11-13T10:34:10.900Z,100284.88
2023-11-13T10:37:14.696Z,100261.47
2023-11-13T10:40:28.246Z,100238.22
2023-11-13T10:43:35.292Z,100289.22
2023-11-13T10:46:37.730Z,100282.91
2023-11-13T10:49:40.820Z,100271.34
2023-11-13T10:52:45.116Z,100295.28
2023-11-13T10:55:48.759Z,100251.41
2023-11-13T10:58:50.987Z,100252.81
2023-11-13T11:01:58.794Z,100255.66
2023-11-13T11:05:04.253Z,100258.22
2023-11-13T11:08:06.694Z,100253.09
2023-11-13T11:11:18.923Z,100241.22
2023-11-13T11:14:51.341Z,100259.47
2023-11-13T11:18:13.776Z,100264.66
2023-11-13T11:21:36.835Z,100258.53
2023-11-13T11:24:58.823Z,100248.84
2023-11-13T11:28:01.155Z,100240.81
2023-11-13T11:31:05.921Z,100234.94
2023-11-13T11:34:08.675Z,100195.13
2023-11-13T11:37:16.530Z,100230.41
2023-11-13T11:40:32.587Z,100201.91
2023-11-13T11:43:40.029Z,100196.19
2023-11-13T11:47:00.210Z,100219.72
2023-11-13T11:50:14.129Z,100217.28
2023-11-13T11:53:20.608Z,100182.53
2023-11-13T11:56:24.881Z,100175.47
2023-11-13T11:59:28.861Z,100204.84
2023-11-13T12:02:32.315Z,100193.47
2023-11-13T12:05:35.230Z,100186.22
2023-11-13T12:08:41.543Z,100179.06
2023-11-13T12:11:44.399Z,100180.94
2023-11-13T12:14:46.474Z,100175.81
2023-11-13T12:17:48.570Z,100169.41
2023-11-13T12:20:50.710Z,100184.06
2023-11-13T12:23:54.218Z,100130.13
2023-11-13T12:26:58.090Z,100146.53
2023-11-13T12:30:07.453Z,100172.19
2023-11-13T12:33:11.018Z,100154.84
2023-11-13T12:36:14.819Z,100164.31
2023-11-13T12:39:18.588Z,100156.63
2023-11-13T12:42:21.385Z,100153.06
2023-11-13T12:45:23.692Z,100152.34
2023-11-13T12:48:25.574Z,100135.75
2023-11-13T12:51:30.338Z,100137.50
2023-11-13T12:54:33.497Z,100148.88
2023-11-13T12:57:38.634Z,100121.31
2023-11-13T13:00:42.025Z,100128.28
2023-11-13T13:03:46.054Z,100102.44
2023-11-13T13:06:49.938Z,100107.56
2023-11-13T13:09:52.945Z,100127.47
2023-11-13T13:12:55.274Z,100131.75
2023-11-13T13:15:57.340Z,100115.50
2023-11-13T13:18:59.992Z,100126.81
2023-11-13T13:22:08.862Z,100092.22
2023-11-13T13:25:12.380Z,100134.44
2023-11-13T13:28:14.529Z,100127.47
2023-11-13T13:31:16.893Z,100106.72
2023-11-13T13:34:20.027Z,100140.53
2023-11-13T13:37:24.933Z,100136.22
2023-11-13T13:40:28.353Z,100138.03
2023-11-13T13:43:30.634Z,100124.88
2023-11-13T13:46:33.197Z,100121.63
2023-11-13T13:49:35.497Z,100132.84
2023-11-13T13:52:47.858Z,100133.66
2023-11-13T13:55:49.824Z,100132.78
2023-11-13T13:58:51.960Z,100114.63
2023-11-13T14:01:53.951Z,100117.22
2023-11-13T14:04:55.974Z,100120.69
2023-11-13T14:07:58.090Z,100092.16
2023-11-13T14:11:01.280Z,100127.59
2023-11-13T14:14:03.218Z,100082.59
2023-11-13T14:17:05.347Z,100099.13
2023-11-13T14:20:16.841Z,100081.03
2023-11-13T14:23:19.515Z,100099.09
2023-11-13T14:26:21.440Z,100099.94
2023-11-13T14:29:23.357Z,100078.34
2023-11-13T14:32:25.507Z,100079.91
2023-11-13T14:35:27.804Z,100069.56
2023-11-13T14:38:31.278Z,100072.84
2023-11-13T14:41:34.574Z,100072.91
2023-11-13T14:44:36.999Z,100021.06
2023-11-13T14:47:42.472Z,100080.75
2023-11-13T14:50:45.581Z,100091.25
2023-11-13T14:53:48.583Z,100079.19
2023-11-13T14:56:50.453Z,100063.72
2023-11-13T14:59:52.823Z,100068.97
2023-11-13T15:02:54.985Z,100069.03
2023-11-13T15:05:59.056Z,100096.72
2023-11-13T15:09:01.652Z,100083.72
2023-11-13T15:12:04.524Z,100066.56
2023-11-13T15:15:09.458Z,100001.78
2023-11-13T15:18:12.121Z,100086.66
2023-11-13T15:21:14.516Z,100089.31
2023-11-13T15:24:17.046Z,100077.19
2023-11-13T15:27:21.218Z,100084.38
2023-11-13T15:30:23.961Z,100095.78
2023-11-13T15:33:25.955Z,100052.44
2023-11-13T15:36:29.405Z,100061.06
2023-11-13T15:39:31.360Z,100053.34
2023-11-13T15:42:34.346Z,100032.66
2023-11-13T15:45:37.367Z,100058.66
2023-11-13T15:48:39.950Z,100044.91
2023-11-13T15:51:42.389Z,100050.16
2023-11-13T15:54:44.921Z,100058.03
2023-11-13T15:57:46.925Z,100060.75
2023-11-13T16:00:49.029Z,100066.94
2023-11-13T16:03:51.068Z,100022.84
2023-11-13T16:06:54.342Z,100058.25
2023-11-13T16:09:56.349Z,100041.66
2023-11-13T16:12:58.419Z,100054.56
2023-11-13T16:16:00.507Z,100039.00
2023-11-13T16:19:03.504Z,100059.81
2023-11-13T16:22:05.668Z,100052.75
2023-11-13T16:25:09.161Z,100053.31
2023-11-13T16:28:11.522Z,100049.59
2023-11-13T16:31:13.805Z,100014.78
2023-11-13T16:34:16.106Z,100050.94
2023-11-13T16:37:18.390Z,99972.19
2023-11-13T16:40:21.869Z,100039.47
2023-11-13T16:43:29.873Z,100054.19
2023-11-13T16:46:34.377Z,100053.47
2023-11-13T16:49:36.463Z,100048.31
2023-11-13T16:52:39.510Z,100063.06
2023-11-13T16:55:41.745Z,100056.19
2023-11-13T16:58:43.654Z,100057.97
2023-11-13T17:01:46.212Z,100056.19
2023-11-13T17:04:48.703Z,100054.66
2023-11-13T17:07:50.924Z,100067.56
2023-11-13T17:10:55.861Z,100068.19
2023-11-13T17:13:58.039Z,100036.97
2023-11-13T17:17:00.188Z,100081.19
2023-11-13T17:20:04.966Z,100060.31
2023-11-13T17:23:11.826Z,100080.38
2023-11-13T17:26:13.977Z,100066.53
2023-11-13T17:29:15.869Z,100060.66
2023-11-13T17:32:18.026Z,100063.13
2023-11-13T17:35:21.512Z,100052.66
2023-11-13T17:38:24.893Z,100044.81
2023-11-13T17:41:27.184Z,100044.78
2023-11-13T17:44:29.413Z,100041.31
2023-11-13T17:47:31.670Z,100034.38
2023-11-13T17:50:33.691Z,100021.63
2023-11-13T17:53:35.534Z,100052.09
2023-11-13T17:56:37.565Z,100039.13
2023-11-13T17:59:43.030Z,100034.72
2023-11-13T18:02:46.014Z,100047.81
2023-11-13T18:05:49.724Z,100047.13
2023-11-13T18:08:52.897Z,100041.13
2023-11-13T18:11:55.714Z,99994.63
2023-11-13T18:14:59.128Z,100030.13
2023-11-13T18:18:02.269Z,100036.34
2023-11-13T18:21:05.278Z,100045.94
2023-11-13T18:24:13.131Z,100041.69
2023-11-13T18:27:17.169Z,100044.44
2023-11-13T18:30:20.599Z,100049.81
2023-11-13T18:33:22.583Z,100055.97
2023-11-13T18:36:25.599Z,100060.31
2023-11-13T18:39:27.896Z,100044.75
2023-11-13T18:42:30.199Z,100049.97
2023-11-13T18:45:33.057Z,100044.13
2023-11-13T18:48:35.066Z,100072.69
2023-11-13T18:51:37.461Z,100045.13
2023-11-13T18:54:39.408Z,100058.91
2023-11-13T18:57:41.356Z,100070.09
2023-11-13T19:00:43.697Z,100039.75
2023-11-13T19:03:46.758Z,100053.50
2023-11-13T19:06:49.007Z,100036.19
2023-11-13T19:09:52.361Z,100034.44
2023-11-13T19:12:54.525Z,100045.72
2023-11-13T19:15:57.762Z,100008.66
2023-11-13T19:18:59.738Z,100027.66
2023-11-13T19:22:03.662Z,100045.81
2023-11-13T19:25:10.169Z,100049.28
2023-11-13T19:28:12.215Z,100041.53
2023-11-13T19:31:14.108Z,100033.56
2023-11-13T19:34:18.292Z,100034.47
2023-11-13T19:37:20.956Z,100008.44
2023-11-13T19:40:24.859Z,100037.06
2023-11-13T19:43:26.758Z,100024.06
2023-11-13T19:46:28.695Z,100020.59
2023-11-13T19:49:31.576Z,99971.31
2023-11-13T19:52:41.999Z,100005.81
2023-11-13T19:55:49.110Z,99985.97
2023-11-13T19:58:51.812Z,100006.47
2023-11-13T20:01:53.991Z,100010.53
2023-11-13T20:04:56.206Z,99997.28
2023-11-13T20:07:59.094Z,100004.09
2023-11-13T20:11:01.041Z,99998.13
2023-11-13T20:14:03.227Z,100004.13
2023-11-13T20:17:08.295Z,99998.66
2023-11-13T20:20:11.301Z,99999.50
2023-11-13T20:23:14.965Z,99992.69
2023-11-13T20:26:16.905Z,99994.50
2023-11-13T20:29:19.646Z,100003.19
2023-11-13T20:32:21.750Z,100004.13
2023-11-13T20:35:24.680Z,99999.03
2023-11-13T20:38:27.849Z,100014.50
2023-11-13T20:41:29.896Z,99998.91
2023-11-13T20:44:31.967Z,100000.75
2023-11-13T20:47:37.415Z,99976.63
2023-11-13T20:50:39.912Z,99955.91
2023-11-13T20:53:41.889Z,99982.59
2023-11-13T20:56:45.877Z,99981.91
2023-11-13T20:59:47.760Z,99978.53
2023-11-13T21:02:49.815Z,99969.13
2023-11-13T21:06:02.386Z,99970.97
2023-11-13T21:09:09.758Z,99961.22
2023-11-13T21:12:11.699Z,99982.09
2023-11-13T21:15:14.122Z,99936.22
2023-11-13T21:18:16.030Z,99959.56
2023-11-13T21:21:17.965Z,99977.81
2023-11-13T21:24:20.455Z,99972.69
2023-11-13T21:27:22.340Z,99971.84
2023-11-13T21:30:24.870Z,99974.41
2023-11-13T21:33:26.951Z,99968.38
2023-11-13T21:36:28.900Z,99979.63
2023-11-13T21:39:31.351Z,99950.38
2023-11-13T21:42:33.280Z,99976.25
2023-11-13T21:45:35.677Z,99974.53
2023-11-13T21:48:37.708Z,99963.44
2023-11-13T21:51:39.597Z,99978.97
2023-11-13T21:54:41.525Z,99958.06
2023-11-13T21:57:43.664Z,99959.00
2023-11-13T22:00:45.609Z,99955.41
2023-11-13T22:03:47.696Z,99938.00
2023-11-13T22:06:50.083Z,99942.47
2023-11-13T22:09:51.975Z,99945.94
2023-11-13T22:12:53.914Z,99932.91
2023-11-13T22:15:56.989Z,99937.28
2023-11-13T22:18:58.859Z,99941.59
2023-11-13T22:22:00.714Z,99948.53
2023-11-13T22:25:02.876Z,99914.69
2023-11-13T22:28:04.874Z,99942.47
2023-11-13T22:31:08.433Z,99917.28
2023-11-13T22:34:10.960Z,99911.25
2023-11-13T22:37:14.560Z,99925.16
2023-11-13T22:40:16.526Z,99928.75
2023-11-13T22:43:18.542Z,99919.22
2023-11-13T22:46:21.073Z,99885.47
2023-11-13T22:49:23.216Z,99911.41
2023-11-13T22:52:25.243Z,99917.44
2023-11-13T22:55:27.293Z,99884.59
2023-11-13T22:58:29.225Z,99911.34
2023-11-13T23:01:31.356Z,99902.63
2023-11-13T23:04:34.741Z,99858.38
2023-11-13T23:07:38.060Z,99787.59
2023-11-13T23:10:40.104Z,99857.47
2023-11-13T23:13:42.385Z,99829.84
2023-11-13T23:17:08.562Z,99866.00
2023-11-13T23:20:10.833Z,99848.78
2023-11-13T23:23:12.946Z,99836.53
2023-11-13T23:26:14.894Z,99828.66
2023-11-13T23:29:16.817Z,99812.28
2023-11-13T23:32:19.166Z,99833.97
2023-11-13T23:35:21.375Z,99806.28
2023-11-13T23:38:25.369Z,99809.56
2023-11-13T23:41:27.291Z,99807.84
2023-11-13T23:44:29.259Z,99827.69
2023-11-13T23:47:34.701Z,99832.19
2023-11-13T23:50:36.752Z,99829.63
2023-11-13T23:53:39.242Z,99753.66
2023-11-13T23:56:41.139Z,99831.41
2023-11-13T23:59:44.065Z,99829.75
